createdAt,value
2023-02-04T00:00:23.083Z,0.30
2023-02-04T00:02:50.770Z,0.20
2023-02-04T00:05:18.546Z,0.30
2023-02-04T00:07:45.388Z,0.22
2023-02-04T00:10:12.327Z,0.20
2023-02-04T00:12:39.265Z,0.30
2023-02-04T00:15:06.312Z,0.43
2023-02-04T00:17:33.129Z,0.20
2023-02-04T00:19:59.989Z,0.20
2023-02-04T00:22:29.310Z,0.20
2023-02-04T00:24:56.605Z,0.50
2023-02-04T00:27:23.378Z,0.10
2023-02-04T00:29:50.246Z,0.30
2023-02-04T00:32:17.166Z,0.50
2023-02-04T00:34:43.918Z,0.20
2023-02-04T00:37:10.802Z,0.25
2023-02-04T00:39:37.559Z,0.25
2023-02-04T00:42:05.758Z,0.35
2023-02-04T00:44:32.597Z,0.17
2023-02-04T00:46:59.599Z,0.15
2023-02-04T00:49:26.528Z,0.50
2023-02-04T00:51:53.576Z,0.20
2023-02-04T00:54:20.248Z,0.22
2023-02-04T00:56:47.019Z,0.10
2023-02-04T00:59:14.034Z,0.20
2023-02-04T01:01:40.809Z,0.20
2023-02-04T01:04:07.606Z,0.22
2023-02-04T01:06:34.943Z,0.30
2023-02-04T01:09:01.816Z,0.20
2023-02-04T01:11:30.285Z,0.20
2023-02-04T01:13:57.055Z,0.20
2023-02-04T01:16:24.005Z,0.20
2023-02-04T01:18:51.410Z,0.10
2023-02-04T01:21:18.242Z,0.10
2023-02-04T01:23:45.143Z,0.28
2023-02-04T01:26:11.937Z,0.20
2023-02-04T01:28:38.694Z,0.10
2023-02-04T01:31:05.764Z,0.13
2023-02-04T01:33:33.864Z,0.10
2023-02-04T01:36:00.653Z,0.20
2023-02-04T01:38:27.371Z,0.40
2023-02-04T01:40:54.170Z,0.57
2023-02-04T01:43:22.831Z,0.70
2023-02-04T01:45:50.570Z,0.20
2023-02-04T01:48:22.545Z,0.15
2023-02-04T01:53:21.702Z,0.38
2023-02-04T01:55:48.728Z,0.20
2023-02-04T01:58:16.353Z,0.22
2023-02-04T02:00:43.097Z,0.13
2023-02-04T02:03:11.893Z,0.20
2023-02-04T02:05:45.193Z,0.28
2023-02-04T02:08:12.968Z,0.10
2023-02-04T02:10:42.006Z,0.10
2023-02-04T02:13:11.630Z,0.40
2023-02-04T02:15:39.581Z,0.10
2023-02-04T02:18:06.974Z,0.22
2023-02-04T02:20:33.912Z,0.20
2023-02-04T02:23:03.827Z,0.30
2023-02-04T02:25:30.982Z,0.10
2023-02-04T02:27:58.643Z,0.10
2023-02-04T02:30:27.400Z,0.10
2023-02-04T02:32:54.375Z,0.20
2023-02-04T02:35:21.373Z,0.28
2023-02-04T02:37:48.085Z,0.10
2023-02-04T02:40:15.266Z,0.20
2023-02-04T02:42:44.326Z,0.17
2023-02-04T02:45:23.035Z,0.30
2023-02-04T02:47:50.623Z,0.13
2023-02-04T02:50:23.665Z,0.30
2023-02-04T02:52:50.501Z,0.13
2023-02-04T02:55:21.572Z,0.10
2023-02-04T02:57:49.602Z,0.50
2023-02-04T03:00:17.931Z,0.20
2023-02-04T03:02:47.119Z,0.32
2023-02-04T03:05:14.079Z,0.20
2023-02-04T03:07:40.974Z,0.10
2023-02-04T03:10:08.228Z,0.10
2023-02-04T03:12:35.045Z,0.40
2023-02-04T03:15:03.684Z,0.10
2023-02-04T03:17:30.900Z,0.10
2023-02-04T03:19:58.295Z,0.10
2023-02-04T03:22:25.036Z,0.10
2023-02-04T03:24:51.881Z,0.10
2023-02-04T03:27:19.153Z,0.40
2023-02-04T03:29:46.071Z,0.10
2023-02-04T03:32:12.852Z,0.32
2023-02-04T03:34:39.723Z,0.35
2023-02-04T03:37:07.366Z,0.10
2023-02-04T03:39:34.069Z,0.30
2023-02-04T03:42:00.868Z,0.10
2023-02-04T03:44:27.547Z,0.28
2023-02-04T03:46:55.632Z,0.30
2023-02-04T03:49:23.395Z,0.10
2023-02-04T03:51:50.771Z,0.30
2023-02-04T03:54:17.650Z,0.13
2023-02-04T03:56:44.654Z,0.10
2023-02-04T03:59:11.337Z,0.10
2023-02-04T04:01:38.136Z,0.15
2023-02-04T04:04:04.965Z,0.17
2023-02-04T04:06:32.153Z,0.50
2023-02-04T04:08:58.845Z,0.20
2023-02-04T04:11:25.584Z,0.10
2023-02-04T04:13:52.365Z,0.20
2023-02-04T04:16:20.784Z,0.10
2023-02-04T04:18:47.893Z,0.20
2023-02-04T04:21:14.755Z,0.20
2023-02-04T04:23:41.647Z,0.25
2023-02-04T04:26:08.406Z,0.10
2023-02-04T04:28:35.134Z,0.20
2023-02-04T04:31:02.092Z,0.15
2023-02-04T04:33:29.033Z,0.13
2023-02-04T04:35:55.822Z,0.50
2023-02-04T04:38:22.695Z,0.30
2023-02-04T04:40:50.061Z,0.22
2023-02-04T04:43:16.788Z,0.35
2023-02-04T04:45:43.570Z,0.20
2023-02-04T04:48:10.284Z,0.30
2023-02-04T04:50:37.121Z,0.20
2023-02-04T04:53:04.089Z,0.45
2023-02-04T04:55:30.912Z,0.15
2023-02-04T04:57:57.621Z,0.22
2023-02-04T05:00:24.540Z,0.20
2023-02-04T05:02:51.238Z,0.32
2023-02-04T05:05:18.039Z,0.28
2023-02-04T05:07:44.839Z,0.20
2023-02-04T05:10:11.660Z,0.30
2023-02-04T05:12:38.640Z,0.20
2023-02-04T05:15:07.369Z,0.20
2023-02-04T05:17:34.237Z,0.40
2023-02-04T05:20:00.970Z,0.20
2023-02-04T05:22:27.676Z,0.30
2023-02-04T05:24:54.489Z,0.30
2023-02-04T05:27:21.461Z,0.40
2023-02-04T05:29:48.833Z,0.30
2023-02-04T05:32:15.596Z,0.22
2023-02-04T05:34:42.407Z,0.70
2023-02-04T05:37:09.216Z,0.20
2023-02-04T05:39:36.310Z,0.28
2023-02-04T05:42:03.360Z,0.52
2023-02-04T05:44:30.200Z,0.17
2023-02-04T05:46:56.945Z,0.20
2023-02-04T05:49:24.784Z,0.22
2023-02-04T05:51:51.561Z,0.20
2023-02-04T05:54:20.599Z,0.20
2023-02-04T05:56:47.997Z,0.20
2023-02-04T05:59:14.830Z,0.10
2023-02-04T06:01:41.543Z,0.20
2023-02-04T06:04:08.354Z,0.20
2023-02-04T06:06:35.139Z,0.20
2023-02-04T06:09:02.368Z,0.25
2023-02-04T06:11:29.135Z,0.20
2023-02-04T06:13:55.978Z,0.25
2023-02-04T06:16:22.765Z,0.30
2023-02-04T06:18:49.554Z,0.20
2023-02-04T06:21:16.303Z,0.17
2023-02-04T06:23:42.997Z,0.30
2023-02-04T06:26:10.426Z,0.20
2023-02-04T06:28:37.480Z,0.10
2023-02-04T06:31:04.562Z,0.28
2023-02-04T06:33:31.498Z,0.10
2023-02-04T06:35:58.235Z,0.30
2023-02-04T06:38:24.858Z,0.20
2023-02-04T06:40:53.857Z,0.22
2023-02-04T06:43:22.089Z,0.20
2023-02-04T06:45:51.034Z,0.60
2023-02-04T06:48:18.630Z,0.20
2023-02-04T06:50:47.305Z,0.10
2023-02-04T06:53:14.201Z,0.20
2023-02-04T06:55:41.683Z,0.20
2023-02-04T06:58:08.640Z,0.30
2023-02-04T07:00:35.490Z,0.25
2023-02-04T07:03:02.387Z,0.50
2023-02-04T07:05:29.080Z,0.20
2023-02-04T07:07:56.340Z,0.20
2023-02-04T07:10:23.080Z,0.30
2023-02-04T07:12:49.769Z,0.40
2023-02-04T07:15:17.177Z,0.10
2023-02-04T07:17:43.939Z,0.17
2023-02-04T07:20:11.802Z,0.10
2023-02-04T07:22:38.668Z,0.40
2023-02-04T07:25:05.662Z,0.22
2023-02-04T07:27:32.468Z,0.20
2023-02-04T07:29:59.242Z,0.28
2023-02-04T07:32:27.831Z,0.20
2023-02-04T07:34:54.524Z,0.22
2023-02-04T07:37:21.586Z,0.40
2023-02-04T07:39:48.304Z,0.15
2023-02-04T07:42:17.685Z,0.30
2023-02-04T07:44:44.537Z,0.57
2023-02-04T07:47:11.977Z,0.40
2023-02-04T07:49:39.165Z,0.20
2023-02-04T07:52:05.846Z,0.30
2023-02-04T07:54:32.846Z,0.20
2023-02-04T07:56:59.632Z,0.28
2023-02-04T07:59:26.659Z,0.40
2023-02-04T08:01:53.588Z,0.30
2023-02-04T08:04:20.342Z,0.20
2023-02-04T08:06:47.224Z,0.32
2023-02-04T08:09:14.160Z,0.22
2023-02-04T08:11:41.123Z,0.10
2023-02-04T08:14:08.003Z,0.47
2023-02-04T08:16:34.725Z,0.32
2023-02-04T08:19:01.541Z,0.10
2023-02-04T08:21:28.790Z,0.28
2023-02-04T08:23:55.961Z,0.20
2023-02-04T08:26:22.928Z,0.13
2023-02-04T08:28:49.784Z,0.20
2023-02-04T08:31:16.690Z,0.22
2023-02-04T08:33:43.492Z,0.30
2023-02-04T08:36:10.903Z,0.30
2023-02-04T08:38:37.496Z,0.40
2023-02-04T08:41:04.710Z,0.20
2023-02-04T08:43:31.395Z,0.40
2023-02-04T08:45:58.238Z,0.20
2023-02-04T08:48:25.027Z,0.30
2023-02-04T08:50:51.784Z,0.20
2023-02-04T08:53:18.715Z,0.20
2023-02-04T08:55:45.360Z,0.55
2023-02-04T08:58:12.098Z,0.30
2023-02-04T09:00:45.618Z,0.15
2023-02-04T09:03:12.827Z,0.30
2023-02-04T09:05:39.701Z,0.30
2023-02-04T09:08:06.888Z,0.20
2023-02-04T09:10:33.922Z,0.22
2023-02-04T09:13:00.923Z,0.20
2023-02-04T09:15:27.854Z,0.30
2023-02-04T09:18:01.299Z,0.30
2023-02-04T09:20:30.400Z,0.10
2023-02-04T09:22:57.496Z,0.20
2023-02-04T09:25:24.258Z,0.25
2023-02-04T09:27:52.916Z,0.20
2023-02-04T09:30:19.936Z,0.20
2023-02-04T09:32:46.818Z,0.10
2023-02-04T09:35:19.749Z,0.10
2023-02-04T09:37:47.443Z,0.05
2023-02-04T09:40:17.375Z,0.43
2023-02-04T09:42:50.387Z,0.30
2023-02-04T09:45:24.607Z,0.30
2023-02-04T09:47:51.956Z,0.20
2023-02-04T09:50:22.478Z,0.47
2023-02-04T09:52:51.414Z,0.32
2023-02-04T10:04:01.728Z,0.30
2023-02-04T10:06:28.585Z,0.10
2023-02-04T10:08:56.008Z,0.20
2023-02-04T10:11:24.792Z,0.50
2023-02-04T10:13:54.400Z,0.20
2023-02-04T10:16:33.088Z,0.10
2023-02-04T10:19:03.481Z,0.20
2023-02-04T10:21:36.885Z,0.20
2023-02-04T10:24:07.073Z,0.20
2023-02-04T10:26:34.151Z,0.30
2023-02-04T10:29:04.029Z,0.28
2023-02-04T10:31:39.685Z,0.20
2023-02-04T10:34:20.724Z,0.10
2023-02-04T10:36:57.608Z,0.10
2023-02-04T10:39:27.399Z,0.20
2023-02-04T10:41:56.515Z,0.30
2023-02-04T10:44:35.920Z,0.10
2023-02-04T10:47:05.458Z,0.20
2023-02-04T10:49:33.409Z,0.10
2023-02-04T10:52:01.763Z,0.20
2023-02-04T10:54:37.999Z,0.20
2023-02-04T10:57:08.980Z,0.73
2023-02-04T10:59:36.743Z,0.20
2023-02-04T11:02:34.801Z,0.20
2023-02-04T11:05:02.320Z,0.20
2023-02-04T11:07:30.599Z,0.30
2023-02-04T11:09:57.892Z,0.20
2023-02-04T11:12:47.829Z,0.20
2023-02-04T11:15:41.861Z,0.30
2023-02-04T11:18:13.313Z,0.15
2023-02-04T11:20:40.795Z,0.30
2023-02-04T11:23:32.298Z,0.20
2023-02-04T11:26:10.450Z,0.20
2023-02-04T11:28:48.188Z,0.30
2023-02-04T11:31:28.449Z,0.20
2023-02-04T11:34:21.533Z,0.30
2023-02-04T11:37:12.899Z,0.32
2023-02-04T11:39:42.825Z,0.30
2023-02-04T11:42:26.154Z,0.30
2023-02-04T11:45:02.852Z,0.20
2023-02-04T11:47:35.776Z,0.20
2023-02-04T11:50:13.306Z,0.60
2023-02-04T11:52:40.523Z,0.20
2023-02-04T11:55:08.081Z,0.30
2023-02-04T11:57:40.359Z,0.30
2023-02-04T12:00:17.674Z,0.20
2023-02-04T12:03:09.007Z,0.20
2023-02-04T12:05:47.776Z,0.30
2023-02-04T12:08:28.015Z,0.20
2023-02-04T12:11:11.323Z,0.30
2023-02-04T12:13:53.854Z,0.32
2023-02-04T12:16:20.980Z,0.20
2023-02-04T12:18:48.612Z,0.70
2023-02-04T12:21:16.269Z,0.50
2023-02-04T12:23:43.149Z,0.30
2023-02-04T12:26:10.201Z,0.20
2023-02-04T12:28:37.201Z,0.77
2023-02-04T12:31:04.175Z,0.20
2023-02-04T12:33:31.168Z,0.30
2023-02-04T12:35:57.861Z,0.20
2023-02-04T12:38:24.933Z,0.20
2023-02-04T12:40:51.660Z,0.30
2023-02-04T12:43:18.354Z,0.30
2023-02-04T12:45:46.428Z,0.28
2023-02-04T12:48:14.015Z,0.20
2023-02-04T12:50:41.383Z,0.40
2023-02-04T12:53:08.932Z,0.20
2023-02-04T12:55:36.368Z,0.20
2023-02-04T12:58:03.806Z,0.20
2023-02-04T13:00:30.616Z,0.30
2023-02-04T13:02:59.188Z,0.30
2023-02-04T13:06:09.047Z,0.30
2023-02-04T13:08:40.842Z,0.10
2023-02-04T13:11:12.306Z,0.22
2023-02-04T13:23:52.222Z,0.20
2023-02-04T13:27:01.900Z,0.30
2023-02-04T13:30:17.467Z,0.30
2023-02-04T13:40:37.751Z,0.30
2023-02-04T13:43:17.786Z,0.40
2023-02-04T13:45:49.073Z,0.22
2023-02-04T13:48:16.566Z,0.30
2023-02-04T13:50:43.418Z,0.30
2023-02-04T13:53:10.276Z,0.20
2023-02-04T13:55:37.269Z,0.52
2023-02-04T13:58:03.974Z,0.30
2023-02-04T14:00:31.111Z,0.30
2023-02-04T14:02:58.228Z,0.20
2023-02-04T14:05:25.162Z,0.22
2023-02-04T14:07:52.042Z,0.40
2023-02-04T14:10:19.773Z,0.30
2023-02-04T14:12:46.541Z,0.20
2023-02-04T14:15:13.505Z,0.30
2023-02-04T14:17:40.331Z,0.28
2023-02-04T14:20:07.933Z,0.20
2023-02-04T14:22:34.727Z,0.30
2023-02-04T14:25:01.449Z,0.20
2023-02-04T14:27:28.146Z,0.30
2023-02-04T14:29:54.942Z,0.70
2023-02-04T14:32:21.645Z,0.25
2023-02-04T14:34:48.356Z,0.20
2023-02-04T14:37:15.088Z,0.17
2023-02-04T14:39:41.872Z,0.60
2023-02-04T14:42:08.572Z,0.30
2023-02-04T14:44:35.218Z,0.30
2023-02-04T14:47:02.235Z,0.43
2023-02-04T14:49:29.080Z,0.43
2023-02-04T14:51:57.118Z,0.20
2023-02-04T14:54:23.970Z,0.28
2023-02-04T14:56:50.764Z,0.43
2023-02-04T14:59:17.634Z,0.20
2023-02-04T15:01:46.288Z,0.20
2023-02-04T15:04:13.747Z,0.38
2023-02-04T15:07:08.289Z,0.40
2023-02-04T15:18:36.455Z,0.43
2023-02-04T15:21:41.281Z,0.57
2023-02-04T15:24:42.931Z,0.20
2023-02-04T15:27:48.534Z,0.25
2023-02-04T15:30:58.510Z,0.35
2023-02-04T15:37:22.689Z,0.57
2023-02-04T15:40:13.193Z,0.43
2023-02-04T15:42:53.737Z,0.30
2023-02-04T15:45:45.909Z,0.43
2023-02-04T15:48:45.358Z,0.30
2023-02-04T15:53:55.688Z,0.30
2023-02-04T15:56:36.448Z,0.40
2023-02-04T15:59:17.603Z,0.30
2023-02-04T16:01:57.241Z,0.40
2023-02-04T16:04:43.902Z,0.35
2023-02-04T16:07:11.485Z,0.30
2023-02-04T16:09:38.856Z,0.65
2023-02-04T16:12:05.717Z,0.70
2023-02-04T16:14:32.530Z,0.40
2023-02-04T16:17:08.178Z,0.40
2023-02-04T16:19:42.861Z,0.50
2023-02-04T16:22:09.636Z,0.38
2023-02-04T16:24:36.780Z,0.63
2023-02-04T16:27:10.909Z,0.80
2023-02-04T16:29:37.627Z,0.52
2023-02-04T16:32:14.779Z,0.50
2023-02-04T16:34:44.344Z,0.50
2023-02-04T16:37:16.250Z,0.30
2023-02-04T16:39:45.146Z,0.55
2023-02-04T16:42:12.516Z,0.80
2023-02-04T16:49:14.272Z,0.38
2023-02-04T16:54:51.820Z,0.40
2023-02-04T16:57:18.627Z,0.40
2023-02-04T16:59:45.472Z,0.80
2023-02-04T17:02:12.310Z,0.68
2023-02-04T17:04:39.177Z,0.70
2023-02-04T17:07:06.396Z,0.65
2023-02-04T17:09:33.083Z,0.50
2023-02-04T17:11:59.801Z,0.80
2023-02-04T17:14:26.536Z,0.68
2023-02-04T17:16:53.302Z,0.80
2023-02-04T17:19:21.189Z,0.90
2023-02-04T17:21:49.330Z,0.70
2023-02-04T17:24:16.208Z,0.77
2023-02-04T17:26:42.937Z,0.73
2023-02-04T17:29:11.790Z,0.80
2023-02-04T17:31:39.714Z,1.45
2023-02-04T17:34:06.825Z,0.75
2023-02-04T17:36:33.774Z,0.98
2023-02-04T17:39:00.858Z,0.80
2023-02-04T17:41:28.180Z,1.20
2023-02-04T17:43:54.975Z,1.20
2023-02-04T17:46:21.771Z,1.30
2023-02-04T17:48:48.568Z,1.17
2023-02-04T17:51:15.358Z,1.08
2023-02-04T17:53:42.278Z,0.93
2023-02-04T17:56:12.335Z,1.35
2023-02-04T17:58:39.043Z,0.90
2023-02-04T18:01:18.723Z,1.10
2023-02-04T18:03:46.431Z,0.95
2023-02-04T18:06:18.063Z,1.30
2023-02-04T18:08:44.928Z,1.63
2023-02-04T18:11:19.082Z,1.50
2023-02-04T18:13:46.002Z,1.17
2023-02-04T18:16:24.305Z,1.52
2023-02-04T18:18:54.342Z,1.52
2023-02-04T18:21:21.279Z,1.65
2023-02-04T18:24:07.178Z,1.48
2023-02-04T18:26:34.792Z,1.63
2023-02-04T18:29:18.246Z,1.70
2023-02-04T18:31:56.881Z,1.52
2023-02-04T18:34:39.002Z,1.80
2023-02-04T18:37:42.374Z,1.92
2023-02-04T18:40:09.208Z,1.65
2023-02-04T18:42:38.606Z,2.03
2023-02-04T18:45:25.078Z,2.10
2023-02-04T18:48:00.920Z,1.70
2023-02-04T18:50:33.402Z,1.55
2023-02-04T18:53:12.481Z,1.60
2023-02-04T18:55:43.273Z,2.40
2023-02-04T18:58:32.129Z,2.33
2023-02-04T19:01:00.752Z,1.92
2023-02-04T19:03:42.105Z,2.00
2023-02-04T19:06:36.050Z,2.13
2023-02-04T19:09:12.191Z,2.30
2023-02-04T19:11:53.575Z,2.30
2023-02-04T19:14:31.389Z,1.92
2023-02-04T19:17:08.170Z,1.75
2023-02-04T19:19:57.752Z,2.03
2023-02-04T19:22:46.047Z,2.20
2023-02-04T19:25:28.559Z,2.15
2023-02-04T19:27:58.087Z,2.13
2023-02-04T19:30:28.089Z,1.98
2023-02-04T19:32:57.448Z,2.28
2023-02-04T19:35:35.448Z,2.17
2023-02-04T19:38:23.721Z,2.53
2023-02-04T19:40:53.088Z,2.60
2023-02-04T19:43:32.856Z,3.08
2023-02-04T19:45:59.732Z,4.90
2023-02-04T19:49:07.411Z,6.05
2023-02-04T19:51:44.799Z,7.65
2023-02-04T19:54:22.788Z,7.72
2023-02-04T19:56:49.939Z,7.28
2023-02-04T19:59:36.364Z,6.57
2023-02-04T20:02:23.487Z,6.60
2023-02-04T20:06:07.075Z,7.72
2023-02-04T20:08:46.368Z,6.57
2023-02-04T20:11:33.038Z,6.30
2023-02-04T20:14:11.631Z,5.57
2023-02-04T20:20:08.494Z,4.05
2023-02-04T20:22:51.836Z,3.67
2023-02-04T20:25:28.086Z,4.60
2023-02-04T20:28:25.210Z,4.30
2023-02-04T20:34:50.691Z,3.42
2023-02-04T20:45:10.488Z,3.88
2023-02-04T20:52:10.816Z,4.03
2023-02-04T20:58:28.211Z,3.80
2023-02-04T21:00:56.108Z,3.47
2023-02-04T21:03:37.328Z,3.60
2023-02-04T21:06:21.291Z,2.95
2023-02-04T21:08:51.404Z,3.60
2023-02-04T21:11:18.421Z,3.80
2023-02-04T21:13:45.257Z,2.67
2023-02-04T21:16:11.962Z,3.05
2023-02-04T21:18:39.633Z,3.50
2023-02-04T21:21:08.247Z,3.30
2023-02-04T21:23:36.321Z,3.10
2023-02-04T21:26:03.465Z,2.55
2023-02-04T21:28:31.952Z,2.30
2023-02-04T21:31:00.201Z,2.42
2023-02-04T21:33:27.309Z,1.58
2023-02-04T21:35:54.724Z,2.25
2023-02-04T21:38:21.530Z,2.55
2023-02-04T21:40:48.463Z,2.00
2023-02-04T21:43:15.138Z,2.63
2023-02-04T21:45:42.001Z,2.17
2023-02-04T21:48:08.734Z,2.65
2023-02-04T21:50:38.251Z,1.85
2023-02-04T21:53:05.940Z,2.10
2023-02-04T21:55:33.134Z,2.03
2023-02-04T21:58:00.285Z,2.55
2023-02-04T22:00:27.680Z,1.90
2023-02-04T22:02:55.077Z,2.20
2023-02-04T22:05:22.727Z,2.47
2023-02-04T22:07:49.943Z,2.95
2023-02-04T22:10:21.159Z,2.58
2023-02-04T22:12:47.979Z,2.25
2023-02-04T22:15:15.124Z,2.47
2023-02-04T22:17:41.790Z,2.20
2023-02-04T22:20:09.502Z,2.50
2023-02-04T22:22:36.407Z,3.38
2023-02-04T22:25:03.755Z,4.60
2023-02-04T22:27:30.462Z,4.18
2023-02-04T22:29:57.935Z,3.08
2023-02-04T22:32:24.712Z,3.08
2023-02-04T22:34:51.454Z,3.03
2023-02-04T22:37:18.275Z,3.22
2023-02-04T22:39:45.074Z,3.00
2023-02-04T22:42:11.921Z,2.75
2023-02-04T22:44:38.653Z,2.17
2023-02-04T22:47:05.582Z,2.25
2023-02-04T22:49:35.870Z,1.88
2023-02-04T22:52:03.772Z,2.83
2023-02-04T22:54:31.076Z,3.58
2023-02-04T22:57:00.405Z,2.85
2023-02-04T22:59:28.084Z,2.17
2023-02-04T23:01:55.663Z,2.13
2023-02-04T23:04:23.080Z,2.50
2023-02-04T23:06:50.686Z,2.00
2023-02-04T23:09:17.922Z,2.03
2023-02-04T23:11:44.738Z,2.05
2023-02-04T23:14:11.610Z,2.03
2023-02-04T23:16:38.681Z,2.28
2023-02-04T23:19:05.522Z,2.83
2023-02-04T23:21:32.778Z,3.00
2023-02-04T23:23:59.752Z,2.42
2023-02-04T23:26:26.648Z,2.10
2023-02-04T23:28:53.505Z,1.90
2023-02-04T23:31:20.325Z,1.80
2023-02-04T23:33:47.109Z,1.55
2023-02-04T23:36:14.010Z,1.52
2023-02-04T23:38:40.786Z,1.85
2023-02-04T23:41:07.713Z,1.30
2023-02-04T23:43:34.452Z,1.35
2023-02-04T23:46:01.328Z,1.02
2023-02-04T23:48:28.121Z,1.38
2023-02-04T23:50:58.037Z,0.95
2023-02-04T23:53:25.392Z,1.20
2023-02-04T23:55:52.416Z,1.20
2023-02-04T23:58:19.380Z,0.93
